sensor_id;sensor_type;location;lat;lon;timestamp;temperature;humidity
65078;DHT22;51672;51.230;-2.322;2022-11-14T00:01:47;11.80;99.90
65078;DHT22;51672;51.230;-2.322;2022-11-14T00:05:29;11.80;99.90
65078;DHT22;51672;51.230;-2.322;2022-11-14T00:09:11;11.90;99.90
65078;DHT22;51672;51.230;-2.322;2022-11-14T00:12:53;11.90;99.90
65078;DHT22;51672;51.230;-2.322;2022-11-14T00:16:35;11.90;99.90
65078;DHT22;51672;51.230;-2.322;2022-11-14T00:20:17;11.90;99.90
65078;DHT22;51672;51.230;-2.322;2022-11-14T00:23:59;11.90;99.90
65078;DHT22;51672;51.230;-2.322;2022-11-14T00:27:41;11.90;99.90
65078;DHT22;51672;51.230;-2.322;2022-11-14T00:31:23;11.90;99.90
65078;DHT22;51672;51.230;-2.322;2022-11-14T00:35:06;12.00;99.90
65078;DHT22;51672;51.230;-2.322;2022-11-14T00:38:52;12.00;99.90
65078;DHT22;51672;51.230;-2.322;2022-11-14T00:42:35;12.10;99.90
65078;DHT22;51672;51.230;-2.322;2022-11-14T00:46:17;12.10;99.90
65078;DHT22;51672;51.230;-2.322;2022-11-14T00:49:59;12.20;99.90
65078;DHT22;51672;51.230;-2.322;2022-11-14T00:53:41;12.30;99.90
65078;DHT22;51672;51.230;-2.322;2022-11-14T00:57:25;12.30;99.90
65078;DHT22;51672;51.230;-2.322;2022-11-14T01:01:07;12.40;99.90
65078;DHT22;51672;51.230;-2.322;2022-11-14T01:04:50;12.40;99.90
65078;DHT22;51672;51.230;-2.322;2022-11-14T01:08:32;12.50;99.90
65078;DHT22;51672;51.230;-2.322;2022-11-14T01:17:15;12.60;99.90
65078;DHT22;51672;51.230;-2.322;2022-11-14T01:21:49;12.70;99.90
65078;DHT22;51672;51.230;-2.322;2022-11-14T01:36:17;12.90;99.90
65078;DHT22;51672;51.230;-2.322;2022-11-14T02:01:17;13.00;99.90
65078;DHT22;51672;51.230;-2.322;2022-11-14T02:05:04;13.00;99.90
65078;DHT22;51672;51.230;-2.322;2022-11-14T02:08:50;13.00;99.90
65078;DHT22;51672;51.230;-2.322;2022-11-14T02:12:33;13.00;99.90
65078;DHT22;51672;51.230;-2.322;2022-11-14T02:16:15;13.10;99.90
65078;DHT22;51672;51.230;-2.322;2022-11-14T02:23:52;13.10;99.90
65078;DHT22;51672;51.230;-2.322;2022-11-14T02:27:35;13.20;99.90
65078;DHT22;51672;51.230;-2.322;2022-11-14T02:31:18;13.20;99.90
65078;DHT22;51672;51.230;-2.322;2022-11-14T02:35:00;13.30;99.90
65078;DHT22;51672;51.230;-2.322;2022-11-14T02:38:42;13.30;99.90
65078;DHT22;51672;51.230;-2.322;2022-11-14T02:42:24;13.30;99.90
65078;DHT22;51672;51.230;-2.322;2022-11-14T02:46:06;13.30;99.90
65078;DHT22;51672;51.230;-2.322;2022-11-14T02:49:48;13.30;99.90
65078;DHT22;51672;51.230;-2.322;2022-11-14T02:53:30;13.40;99.90
65078;DHT22;51672;51.230;-2.322;2022-11-14T02:57:12;13.30;99.90
65078;DHT22;51672;51.230;-2.322;2022-11-14T03:00:54;13.40;99.90
65078;DHT22;51672;51.230;-2.322;2022-11-14T03:04:56;13.40;99.90
65078;DHT22;51672;51.230;-2.322;2022-11-14T03:08:38;13.40;99.90
65078;DHT22;51672;51.230;-2.322;2022-11-14T03:12:20;13.50;99.90
65078;DHT22;51672;51.230;-2.322;2022-11-14T03:16:07;13.40;99.90
65078;DHT22;51672;51.230;-2.322;2022-11-14T03:19:50;13.40;99.90
65078;DHT22;51672;51.230;-2.322;2022-11-14T03:23:32;13.50;99.90
65078;DHT22;51672;51.230;-2.322;2022-11-14T03:27:14;13.50;99.90
65078;DHT22;51672;51.230;-2.322;2022-11-14T03:30:56;13.50;99.90
65078;DHT22;51672;51.230;-2.322;2022-11-14T03:34:38;13.50;99.90
65078;DHT22;51672;51.230;-2.322;2022-11-14T03:38:20;13.50;99.90
65078;DHT22;51672;51.230;-2.322;2022-11-14T03:42:05;13.50;99.90
65078;DHT22;51672;51.230;-2.322;2022-11-14T03:45:47;13.50;99.90
65078;DHT22;51672;51.230;-2.322;2022-11-14T03:49:29;13.60;99.90
65078;DHT22;51672;51.230;-2.322;2022-11-14T03:53:11;13.60;99.90
65078;DHT22;51672;51.230;-2.322;2022-11-14T03:56:53;13.60;99.90
65078;DHT22;51672;51.230;-2.322;2022-11-14T04:00:35;13.60;99.90
65078;DHT22;51672;51.230;-2.322;2022-11-14T04:04:17;13.60;99.90
65078;DHT22;51672;51.230;-2.322;2022-11-14T04:07:59;13.60;99.90
65078;DHT22;51672;51.230;-2.322;2022-11-14T04:11:41;13.60;99.90
65078;DHT22;51672;51.230;-2.322;2022-11-14T04:15:23;13.60;99.90
65078;DHT22;51672;51.230;-2.322;2022-11-14T04:19:05;13.60;99.90
65078;DHT22;51672;51.230;-2.322;2022-11-14T04:22:47;13.70;99.90
65078;DHT22;51672;51.230;-2.322;2022-11-14T04:26:29;13.60;99.90
65078;DHT22;51672;51.230;-2.322;2022-11-14T04:30:11;13.50;99.90
65078;DHT22;51672;51.230;-2.322;2022-11-14T04:33:53;13.50;99.90
65078;DHT22;51672;51.230;-2.322;2022-11-14T04:37:35;13.50;99.90
65078;DHT22;51672;51.230;-2.322;2022-11-14T04:41:19;13.40;99.90
65078;DHT22;51672;51.230;-2.322;2022-11-14T04:45:01;13.30;99.90
65078;DHT22;51672;51.230;-2.322;2022-11-14T04:48:43;13.30;99.90
65078;DHT22;51672;51.230;-2.322;2022-11-14T04:52:25;13.20;99.90
65078;DHT22;51672;51.230;-2.322;2022-11-14T04:56:07;13.10;99.90
65078;DHT22;51672;51.230;-2.322;2022-11-14T04:59:49;13.20;99.90
65078;DHT22;51672;51.230;-2.322;2022-11-14T05:03:31;13.10;99.90
65078;DHT22;51672;51.230;-2.322;2022-11-14T05:07:13;13.10;99.90
65078;DHT22;51672;51.230;-2.322;2022-11-14T05:10:55;13.10;99.90
65078;DHT22;51672;51.230;-2.322;2022-11-14T05:14:37;13.20;99.90
65078;DHT22;51672;51.230;-2.322;2022-11-14T05:18:19;13.10;99.90
65078;DHT22;51672;51.230;-2.322;2022-11-14T05:22:01;13.10;99.90
65078;DHT22;51672;51.230;-2.322;2022-11-14T05:25:43;13.10;99.90
65078;DHT22;51672;51.230;-2.322;2022-11-14T05:29:25;13.10;99.90
65078;DHT22;51672;51.230;-2.322;2022-11-14T05:33:07;13.10;99.90
65078;DHT22;51672;51.230;-2.322;2022-11-14T05:36:49;13.20;99.90
65078;DHT22;51672;51.230;-2.322;2022-11-14T05:40:31;13.20;99.90
65078;DHT22;51672;51.230;-2.322;2022-11-14T05:44:13;13.20;99.90
65078;DHT22;51672;51.230;-2.322;2022-11-14T05:47:55;13.20;99.90
65078;DHT22;51672;51.230;-2.322;2022-11-14T05:51:37;13.30;99.90
65078;DHT22;51672;51.230;-2.322;2022-11-14T05:55:19;13.20;99.90
65078;DHT22;51672;51.230;-2.322;2022-11-14T05:59:05;13.20;99.90
65078;DHT22;51672;51.230;-2.322;2022-11-14T06:02:54;13.20;99.90
65078;DHT22;51672;51.230;-2.322;2022-11-14T06:06:36;13.30;99.90
65078;DHT22;51672;51.230;-2.322;2022-11-14T06:10:17;13.30;99.90
65078;DHT22;51672;51.230;-2.322;2022-11-14T06:13:59;13.30;99.90
65078;DHT22;51672;51.230;-2.322;2022-11-14T06:17:41;13.20;99.90
65078;DHT22;51672;51.230;-2.322;2022-11-14T06:21:24;13.20;99.90
65078;DHT22;51672;51.230;-2.322;2022-11-14T06:25:07;13.20;99.90
65078;DHT22;51672;51.230;-2.322;2022-11-14T06:28:51;13.20;99.90
65078;DHT22;51672;51.230;-2.322;2022-11-14T06:32:33;13.20;99.90
65078;DHT22;51672;51.230;-2.322;2022-11-14T06:36:16;13.10;99.90
65078;DHT22;51672;51.230;-2.322;2022-11-14T06:39:58;13.00;99.90
65078;DHT22;51672;51.230;-2.322;2022-11-14T06:43:42;13.00;99.90
65078;DHT22;51672;51.230;-2.322;2022-11-14T06:47:24;13.00;99.90
65078;DHT22;51672;51.230;-2.322;2022-11-14T06:51:06;13.00;99.90
65078;DHT22;51672;51.230;-2.322;2022-11-14T06:54:48;13.00;99.90
65078;DHT22;51672;51.230;-2.322;2022-11-14T06:58:36;13.00;99.90
65078;DHT22;51672;51.230;-2.322;2022-11-14T07:02:19;13.10;99.90
65078;DHT22;51672;51.230;-2.322;2022-11-14T07:06:04;13.10;99.90
65078;DHT22;51672;51.230;-2.322;2022-11-14T07:09:49;13.00;99.90
65078;DHT22;51672;51.230;-2.322;2022-11-14T07:13:32;13.00;99.90
65078;DHT22;51672;51.230;-2.322;2022-11-14T07:17:14;13.00;99.90
65078;DHT22;51672;51.230;-2.322;2022-11-14T07:21:04;13.00;99.90
65078;DHT22;51672;51.230;-2.322;2022-11-14T07:24:46;13.10;99.90
65078;DHT22;51672;51.230;-2.322;2022-11-14T07:28:28;13.10;99.90
65078;DHT22;51672;51.230;-2.322;2022-11-14T07:32:10;13.10;99.90
65078;DHT22;51672;51.230;-2.322;2022-11-14T07:35:52;13.00;99.90
65078;DHT22;51672;51.230;-2.322;2022-11-14T07:39:34;13.00;99.90
65078;DHT22;51672;51.230;-2.322;2022-11-14T07:43:16;13.10;99.90
65078;DHT22;51672;51.230;-2.322;2022-11-14T07:50:47;13.00;99.90
65078;DHT22;51672;51.230;-2.322;2022-11-14T07:54:29;12.90;99.90
65078;DHT22;51672;51.230;-2.322;2022-11-14T07:58:11;12.90;99.90
65078;DHT22;51672;51.230;-2.322;2022-11-14T08:01:53;12.90;99.90
65078;DHT22;51672;51.230;-2.322;2022-11-14T08:05:35;12.90;99.90
65078;DHT22;51672;51.230;-2.322;2022-11-14T08:09:17;13.00;99.90
65078;DHT22;51672;51.230;-2.322;2022-11-14T08:13:19;13.00;99.90
65078;DHT22;51672;51.230;-2.322;2022-11-14T08:17:16;13.00;99.90
65078;DHT22;51672;51.230;-2.322;2022-11-14T08:21:12;13.00;99.90
65078;DHT22;51672;51.230;-2.322;2022-11-14T08:24:55;13.00;99.90
65078;DHT22;51672;51.230;-2.322;2022-11-14T08:28:36;13.20;99.90
65078;DHT22;51672;51.230;-2.322;2022-11-14T08:32:29;13.20;99.90
65078;DHT22;51672;51.230;-2.322;2022-11-14T08:36:12;13.30;99.90
65078;DHT22;51672;51.230;-2.322;2022-11-14T08:39:54;13.30;99.90
65078;DHT22;51672;51.230;-2.322;2022-11-14T08:47:26;13.50;99.90
65078;DHT22;51672;51.230;-2.322;2022-11-14T08:51:08;13.50;99.90
65078;DHT22;51672;51.230;-2.322;2022-11-14T08:55:22;13.50;99.90
65078;DHT22;51672;51.230;-2.322;2022-11-14T08:59:04;13.60;99.90
65078;DHT22;51672;51.230;-2.322;2022-11-14T09:02:57;13.70;99.90
65078;DHT22;51672;51.230;-2.322;2022-11-14T09:06:39;13.80;99.90
65078;DHT22;51672;51.230;-2.322;2022-11-14T09:10:21;13.90;99.90
65078;DHT22;51672;51.230;-2.322;2022-11-14T09:17:55;14.10;99.90
65078;DHT22;51672;51.230;-2.322;2022-11-14T09:21:38;14.20;99.90
65078;DHT22;51672;51.230;-2.322;2022-11-14T09:29:06;14.30;99.90
65078;DHT22;51672;51.230;-2.322;2022-11-14T09:32:50;14.40;99.90
65078;DHT22;51672;51.230;-2.322;2022-11-14T09:36:38;14.50;99.90
65078;DHT22;51672;51.230;-2.322;2022-11-14T09:40:21;14.50;99.90
65078;DHT22;51672;51.230;-2.322;2022-11-14T09:48:27;14.80;99.90
65078;DHT22;51672;51.230;-2.322;2022-11-14T09:56:27;14.90;99.90
65078;DHT22;51672;51.230;-2.322;2022-11-14T10:12:20;14.80;99.90
65078;DHT22;51672;51.230;-2.322;2022-11-14T10:29:54;14.80;99.90
65078;DHT22;51672;51.230;-2.322;2022-11-14T10:38:15;14.80;99.90
65078;DHT22;51672;51.230;-2.322;2022-11-14T10:42:37;14.80;99.90
65078;DHT22;51672;51.230;-2.322;2022-11-14T10:54:59;14.80;99.90
65078;DHT22;51672;51.230;-2.322;2022-11-14T11:02:55;14.80;99.90
65078;DHT22;51672;51.230;-2.322;2022-11-14T11:11:39;14.90;99.90
65078;DHT22;51672;51.230;-2.322;2022-11-14T11:19:42;14.90;99.90
65078;DHT22;51672;51.230;-2.322;2022-11-14T11:27:40;15.00;99.90
65078;DHT22;51672;51.230;-2.322;2022-11-14T11:35:30;15.40;99.90
65078;DHT22;51672;51.230;-2.322;2022-11-14T11:40:11;15.70;99.90
65078;DHT22;51672;51.230;-2.322;2022-11-14T11:56:58;16.30;99.90
65078;DHT22;51672;51.230;-2.322;2022-11-14T12:09:23;16.40;99.90
65078;DHT22;51672;51.230;-2.322;2022-11-14T12:38:33;17.20;99.90
65078;DHT22;51672;51.230;-2.322;2022-11-14T12:50:50;17.00;99.90
65078;DHT22;51672;51.230;-2.322;2022-11-14T13:12:28;16.70;99.90
65078;DHT22;51672;51.230;-2.322;2022-11-14T13:16:44;16.60;99.90
65078;DHT22;51672;51.230;-2.322;2022-11-14T13:21:27;16.50;99.90
65078;DHT22;51672;51.230;-2.322;2022-11-14T13:25:44;16.30;99.90
65078;DHT22;51672;51.230;-2.322;2022-11-14T13:33:46;15.80;99.90
65078;DHT22;51672;51.230;-2.322;2022-11-14T13:38:07;15.50;99.90
65078;DHT22;51672;51.230;-2.322;2022-11-14T13:50:48;15.00;99.90
65078;DHT22;51672;51.230;-2.322;2022-11-14T15:04:58;14.90;99.90
65078;DHT22;51672;51.230;-2.322;2022-11-14T15:09:07;14.70;99.90
65078;DHT22;51672;51.230;-2.322;2022-11-14T15:12:50;14.50;99.90
65078;DHT22;51672;51.230;-2.322;2022-11-14T15:16:54;14.30;99.90
65078;DHT22;51672;51.230;-2.322;2022-11-14T15:20:43;14.10;99.90
65078;DHT22;51672;51.230;-2.322;2022-11-14T15:37:38;13.60;99.90
65078;DHT22;51672;51.230;-2.322;2022-11-14T15:41:41;13.40;99.90
65078;DHT22;51672;51.230;-2.322;2022-11-14T15:45:39;13.30;99.90
65078;DHT22;51672;51.230;-2.322;2022-11-14T15:50:04;13.30;99.90
65078;DHT22;51672;51.230;-2.322;2022-11-14T15:58:01;13.10;99.90
65078;DHT22;51672;51.230;-2.322;2022-11-14T16:02:28;13.10;99.90
65078;DHT22;51672;51.230;-2.322;2022-11-14T16:06:26;13.10;99.90
65078;DHT22;51672;51.230;-2.322;2022-11-14T16:10:25;13.00;99.90
65078;DHT22;51672;51.230;-2.322;2022-11-14T16:14:16;13.00;99.90
65078;DHT22;51672;51.230;-2.322;2022-11-14T16:18:16;12.90;99.90
65078;DHT22;51672;51.230;-2.322;2022-11-14T16:22:18;12.90;99.90
65078;DHT22;51672;51.230;-2.322;2022-11-14T16:26:01;12.80;99.90
65078;DHT22;51672;51.230;-2.322;2022-11-14T16:29:43;12.80;99.90
65078;DHT22;51672;51.230;-2.322;2022-11-14T16:33:26;12.70;99.90
65078;DHT22;51672;51.230;-2.322;2022-11-14T16:37:13;12.60;99.90
65078;DHT22;51672;51.230;-2.322;2022-11-14T16:40:58;12.60;99.90
65078;DHT22;51672;51.230;-2.322;2022-11-14T16:44:42;12.60;99.90
65078;DHT22;51672;51.230;-2.322;2022-11-14T16:48:31;12.60;99.90
65078;DHT22;51672;51.230;-2.322;2022-11-14T16:52:13;12.50;99.90
65078;DHT22;51672;51.230;-2.322;2022-11-14T16:56:24;12.50;99.90
65078;DHT22;51672;51.230;-2.322;2022-11-14T17:00:09;12.50;99.90
65078;DHT22;51672;51.230;-2.322;2022-11-14T17:03:53;12.50;99.90
65078;DHT22;51672;51.230;-2.322;2022-11-14T17:07:35;12.40;99.90
65078;DHT22;51672;51.230;-2.322;2022-11-14T17:11:17;12.40;99.90
65078;DHT22;51672;51.230;-2.322;2022-11-14T17:14:59;12.40;99.90
65078;DHT22;51672;51.230;-2.322;2022-11-14T17:18:42;12.40;99.90
65078;DHT22;51672;51.230;-2.322;2022-11-14T17:22:24;12.40;99.90
65078;DHT22;51672;51.230;-2.322;2022-11-14T17:26:09;12.30;99.90
65078;DHT22;51672;51.230;-2.322;2022-11-14T17:29:52;12.20;99.90
65078;DHT22;51672;51.230;-2.322;2022-11-14T17:33:35;12.10;99.90
65078;DHT22;51672;51.230;-2.322;2022-11-14T17:37:17;12.00;99.90
65078;DHT22;51672;51.230;-2.322;2022-11-14T17:40:59;12.00;99.90
65078;DHT22;51672;51.230;-2.322;2022-11-14T17:44:41;11.90;99.90
65078;DHT22;51672;51.230;-2.322;2022-11-14T17:48:24;11.80;99.90
65078;DHT22;51672;51.230;-2.322;2022-11-14T17:52:06;11.80;99.90
65078;DHT22;51672;51.230;-2.322;2022-11-14T17:55:54;11.70;99.90
65078;DHT22;51672;51.230;-2.322;2022-11-14T17:59:37;11.60;99.90
65078;DHT22;51672;51.230;-2.322;2022-11-14T18:03:21;11.60;99.90
65078;DHT22;51672;51.230;-2.322;2022-11-14T18:07:03;11.60;99.90
65078;DHT22;51672;51.230;-2.322;2022-11-14T18:10:45;11.60;99.90
65078;DHT22;51672;51.230;-2.322;2022-11-14T18:14:27;11.60;99.90
65078;DHT22;51672;51.230;-2.322;2022-11-14T18:18:09;11.60;99.90
65078;DHT22;51672;51.230;-2.322;2022-11-14T18:21:52;11.50;99.90
65078;DHT22;51672;51.230;-2.322;2022-11-14T18:25:34;11.50;99.90
65078;DHT22;51672;51.230;-2.322;2022-11-14T18:29:16;11.50;99.90
65078;DHT22;51672;51.230;-2.322;2022-11-14T18:32:59;11.50;99.90
65078;DHT22;51672;51.230;-2.322;2022-11-14T18:36:42;11.50;99.90
65078;DHT22;51672;51.230;-2.322;2022-11-14T18:40:23;11.50;99.90
65078;DHT22;51672;51.230;-2.322;2022-11-14T18:44:05;11.40;99.90
65078;DHT22;51672;51.230;-2.322;2022-11-14T18:47:47;11.40;99.90
65078;DHT22;51672;51.230;-2.322;2022-11-14T18:51:29;11.40;99.90
65078;DHT22;51672;51.230;-2.322;2022-11-14T18:55:12;11.40;99.90
65078;DHT22;51672;51.230;-2.322;2022-11-14T18:58:54;11.40;99.90
65078;DHT22;51672;51.230;-2.322;2022-11-14T19:02:37;11.30;99.90
65078;DHT22;51672;51.230;-2.322;2022-11-14T19:06:19;11.20;99.90
65078;DHT22;51672;51.230;-2.322;2022-11-14T19:10:00;11.10;99.90
65078;DHT22;51672;51.230;-2.322;2022-11-14T19:13:42;10.90;99.90
65078;DHT22;51672;51.230;-2.322;2022-11-14T19:17:24;10.80;99.90
65078;DHT22;51672;51.230;-2.322;2022-11-14T19:21:06;10.60;99.90
65078;DHT22;51672;51.230;-2.322;2022-11-14T19:24:48;10.40;99.90
65078;DHT22;51672;51.230;-2.322;2022-11-14T19:28:30;10.20;99.90
65078;DHT22;51672;51.230;-2.322;2022-11-14T19:32:12;10.10;99.90
65078;DHT22;51672;51.230;-2.322;2022-11-14T19:35:54;9.90;99.90
65078;DHT22;51672;51.230;-2.322;2022-11-14T19:39:36;9.70;99.90
65078;DHT22;51672;51.230;-2.322;2022-11-14T19:43:19;9.60;99.90
65078;DHT22;51672;51.230;-2.322;2022-11-14T19:47:01;9.40;99.90
65078;DHT22;51672;51.230;-2.322;2022-11-14T19:50:43;9.30;99.90
65078;DHT22;51672;51.230;-2.322;2022-11-14T19:54:25;9.10;99.90
65078;DHT22;51672;51.230;-2.322;2022-11-14T19:58:07;9.00;99.90
65078;DHT22;51672;51.230;-2.322;2022-11-14T20:01:49;8.90;99.90
65078;DHT22;51672;51.230;-2.322;2022-11-14T20:05:36;8.80;99.90
65078;DHT22;51672;51.230;-2.322;2022-11-14T20:09:19;8.70;99.90
65078;DHT22;51672;51.230;-2.322;2022-11-14T20:13:01;8.60;99.90
65078;DHT22;51672;51.230;-2.322;2022-11-14T20:16:42;8.60;99.90
65078;DHT22;51672;51.230;-2.322;2022-11-14T20:20:26;8.50;99.90
65078;DHT22;51672;51.230;-2.322;2022-11-14T20:24:10;8.50;99.90
65078;DHT22;51672;51.230;-2.322;2022-11-14T20:27:52;8.40;99.90
65078;DHT22;51672;51.230;-2.322;2022-11-14T20:31:34;8.30;99.90
65078;DHT22;51672;51.230;-2.322;2022-11-14T20:35:16;8.20;99.90
65078;DHT22;51672;51.230;-2.322;2022-11-14T20:38:58;8.20;99.90
65078;DHT22;51672;51.230;-2.322;2022-11-14T20:42:40;8.10;99.90
65078;DHT22;51672;51.230;-2.322;2022-11-14T20:46:22;8.10;99.90
65078;DHT22;51672;51.230;-2.322;2022-11-14T20:50:04;8.00;99.90
65078;DHT22;51672;51.230;-2.322;2022-11-14T20:53:47;8.00;99.90
65078;DHT22;51672;51.230;-2.322;2022-11-14T20:57:30;8.00;99.90
65078;DHT22;51672;51.230;-2.322;2022-11-14T21:01:12;8.00;99.90
65078;DHT22;51672;51.230;-2.322;2022-11-14T21:04:55;8.00;99.90
65078;DHT22;51672;51.230;-2.322;2022-11-14T21:08:37;8.00;99.90
65078;DHT22;51672;51.230;-2.322;2022-11-14T21:12:19;8.00;99.90
65078;DHT22;51672;51.230;-2.322;2022-11-14T21:16:03;8.10;99.90
65078;DHT22;51672;51.230;-2.322;2022-11-14T21:19:46;8.10;99.90
65078;DHT22;51672;51.230;-2.322;2022-11-14T21:23:28;8.10;99.90
65078;DHT22;51672;51.230;-2.322;2022-11-14T21:27:10;8.20;99.90
65078;DHT22;51672;51.230;-2.322;2022-11-14T21:30:53;8.20;99.90
65078;DHT22;51672;51.230;-2.322;2022-11-14T21:34:35;8.30;99.90
65078;DHT22;51672;51.230;-2.322;2022-11-14T21:38:17;8.30;99.90
65078;DHT22;51672;51.230;-2.322;2022-11-14T21:41:59;8.30;99.90
65078;DHT22;51672;51.230;-2.322;2022-11-14T21:45:41;8.30;99.90
65078;DHT22;51672;51.230;-2.322;2022-11-14T21:49:23;8.40;99.90
65078;DHT22;51672;51.230;-2.322;2022-11-14T21:53:06;8.40;99.90
65078;DHT22;51672;51.230;-2.322;2022-11-14T21:56:56;8.40;99.90
65078;DHT22;51672;51.230;-2.322;2022-11-14T22:00:39;8.40;99.90
65078;DHT22;51672;51.230;-2.322;2022-11-14T22:04:22;8.40;99.90
65078;DHT22;51672;51.230;-2.322;2022-11-14T22:08:04;8.50;99.90
65078;DHT22;51672;51.230;-2.322;2022-11-14T22:11:46;8.50;99.90
65078;DHT22;51672;51.230;-2.322;2022-11-14T22:15:28;8.50;99.90
65078;DHT22;51672;51.230;-2.322;2022-11-14T22:19:10;8.50;99.90
65078;DHT22;51672;51.230;-2.322;2022-11-14T22:22:55;8.60;99.90
65078;DHT22;51672;51.230;-2.322;2022-11-14T22:26:37;8.60;99.90
65078;DHT22;51672;51.230;-2.322;2022-11-14T22:30:20;8.70;99.90
65078;DHT22;51672;51.230;-2.322;2022-11-14T22:34:02;8.70;99.90
65078;DHT22;51672;51.230;-2.322;2022-11-14T22:37:44;8.80;99.90
65078;DHT22;51672;51.230;-2.322;2022-11-14T22:41:31;8.80;99.90
65078;DHT22;51672;51.230;-2.322;2022-11-14T22:45:14;8.80;99.90
65078;DHT22;51672;51.230;-2.322;2022-11-14T22:48:56;8.90;99.90
65078;DHT22;51672;51.230;-2.322;2022-11-14T22:52:38;9.00;99.90
65078;DHT22;51672;51.230;-2.322;2022-11-14T22:56:26;9.10;99.90
65078;DHT22;51672;51.230;-2.322;2022-11-14T23:00:09;9.20;99.90
65078;DHT22;51672;51.230;-2.322;2022-11-14T23:03:59;9.20;99.90
65078;DHT22;51672;51.230;-2.322;2022-11-14T23:07:42;9.30;99.90
65078;DHT22;51672;51.230;-2.322;2022-11-14T23:11:26;9.40;99.90
65078;DHT22;51672;51.230;-2.322;2022-11-14T23:15:09;9.40;99.90
65078;DHT22;51672;51.230;-2.322;2022-11-14T23:18:53;9.50;99.90
65078;DHT22;51672;51.230;-2.322;2022-11-14T23:22:36;9.60;99.90
65078;DHT22;51672;51.230;-2.322;2022-11-14T23:26:18;9.70;99.90
65078;DHT22;51672;51.230;-2.322;2022-11-14T23:30:00;9.70;99.90
65078;DHT22;51672;51.230;-2.322;2022-11-14T23:33:42;9.80;99.90
65078;DHT22;51672;51.230;-2.322;2022-11-14T23:37:24;9.80;99.90
65078;DHT22;51672;51.230;-2.322;2022-11-14T23:41:06;9.80;99.90
65078;DHT22;51672;51.230;-2.322;2022-11-14T23:44:48;9.90;99.90
65078;DHT22;51672;51.230;-2.322;2022-11-14T23:48:30;10.00;99.90
65078;DHT22;51672;51.230;-2.322;2022-11-14T23:52:12;10.10;99.90
65078;DHT22;51672;51.230;-2.322;2022-11-14T23:55:56;10.30;99.90
65078;DHT22;51672;51.230;-2.322;2022-11-14T23:59:38;10.40;99.90
